Time;durP1;ratioP1;P1;durP2;ratioP2;P2;SDS_P1;SDS_P2;PMS_P1;PMS_P2;Temp;Humidity;BMP_temperature;BMP_pressure;BME280_temperature;BME280_humidity;BME280_pressure;Samples;Min_cycle;Max_cycle;Signal;HPM_P1;HPM_P2
2022/09/09 00:00:05;;;;;;;;;;;;;;;;;;5138097;27;19971;-77
2022/09/09 00:02:31;;;;;;;;;;;;;;;;;;5119756;27;19920;-76
2022/09/09 00:05:09;;;;;;;;;;;;;;;;;;5119902;27;19938;-77
2022/09/09 00:07:34;;;;;;;;;;;;;;;;;;5137464;27;20056;-77
2022/09/09 00:10:06;;;;;;;;;;;;;;;;;;5138008;27;19956;-76
2022/09/09 00:12:31;;;;;;;;;;;;;;;;;;5137947;27;19916;-77
2022/09/09 00:15:00;;;;;;;;;;;;;;;;;;5138226;27;19923;-77
2022/09/09 00:17:44;;;;;;;;;;;;;;;;;;5119672;27;19941;-76
2022/09/09 00:20:28;;;;;;;;;;;;;;;;;;5137887;27;20193;-77
2022/09/09 00:22:55;;;;;;;;;;;;;;;;;;5119468;27;20025;-76
2022/09/09 00:25:29;;;;;;;;;;;;;;;;;;5119385;27;20009;-76
2022/09/09 00:27:54;;;;;;;;;;;;;;;;;;5137724;27;20241;-77
2022/09/09 00:30:24;;;;;;;;;;;;;;;;;;5119333;27;19915;-76
2022/09/09 00:32:50;;;;;;;;;;;;;;;;;;5137464;27;19916;-76
2022/09/09 00:35:17;;;;;;;;;;;;;;;;;;5137348;27;19964;-77
2022/09/09 00:37:43;;;;;;;;;;;;;;;;;;5119714;27;19915;-77
2022/09/09 00:40:27;;;;;;;;;;;;;;;;;;5119045;27;19965;-76
2022/09/09 00:42:54;;;;;;;;;;;;;;;;;;5137337;27;20020;-76
2022/09/09 00:45:20;;;;;;;;;;;;;;;;;;5119319;27;19938;-77
2022/09/09 00:47:51;;;;;;;;;;;;;;;;;;5137330;27;20333;-77
2022/09/09 00:50:24;;;;;;;;;;;;;;;;;;5118630;27;19966;-77
2022/09/09 00:53:03;;;;;;;;;;;;;;;;;;5118936;27;19915;-77
2022/09/09 00:55:33;;;;;;;;;;;;;;;;;;5102072;27;20298;-77
2022/09/09 00:57:59;;;;;;;;;;;;;;;;;;5118776;27;19972;-76
2022/09/09 01:00:31;;;;;;;;;;;;;;;;;;5137750;27;20364;-76
2022/09/09 01:03:07;;;;;;;;;;;;;;;;;;5118556;27;19920;-76
2022/09/09 01:05:32;;;;;;;;;;;;;;;;;;5118577;27;19920;-77
2022/09/09 01:07:58;;;;;;;;;;;;;;;;;;5136906;27;19972;-76
2022/09/09 01:10:46;;;;;;;;;;;;;;;;;;5137340;27;20278;-77
2022/09/09 01:13:21;;;;;;;;;;;;;;;;;;5118269;27;19928;-76
2022/09/09 01:15:47;;;;;;;;;;;;;;;;;;5101545;27;20312;-76
2022/09/09 01:18:13;;;;;;;;;;;;;;;;;;5135863;27;19922;-77
2022/09/09 01:20:41;;;;;;;;;;;;;;;;;;5117886;27;19922;-77
2022/09/09 01:23:25;;;;;;;;;;;;;;;;;;5118310;27;19971;-76
2022/09/09 01:26:09;;;;;;;;;;;;;;;;;;5136470;27;20328;-76
2022/09/09 01:28:35;;;;;;;;;;;;;;;;;;5136523;27;19915;-76
2022/09/09 01:31:00;;;;;;;;;;;;;;;;;;5118182;27;19918;-76
2022/09/09 01:33:26;;;;;;;;;;;;;;;;;;5136349;27;20293;-76
2022/09/09 01:36:00;;;;;;;;;;;;;;;;;;5101221;27;19912;-77
2022/09/09 01:38:25;;;;;;;;;;;;;;;;;;5136327;27;19915;-77
2022/09/09 01:40:52;;;;;;;;;;;;;;;;;;5117845;27;19915;-77
2022/09/09 01:43:18;;;;;;;;;;;;;;;;;;5117973;27;19998;-76
2022/09/09 01:45:43;;;;;;;;;;;;;;;;;;5118268;27;20294;-76
2022/09/09 01:48:09;;;;;;;;;;;;;;;;;;5117416;27;20020;-76
2022/09/09 01:50:34;;;;;;;;;;;;;;;;;;5135937;27;20276;-77
2022/09/09 01:52:59;;;;;;;;;;;;;;;;;;5135940;27;19916;-76
2022/09/09 01:55:31;;;;;;;;;;;;;;;;;;5136158;27;20006;-77
2022/09/09 01:58:16;;;;;;;;;;;;;;;;;;5135914;27;19980;-77
2022/09/09 02:00:43;;;;;;;;;;;;;;;;;;5135811;27;20018;-77
2022/09/09 02:03:09;;;;;;;;;;;;;;;;;;5117374;27;19920;-77
2022/09/09 02:05:41;;;;;;;;;;;;;;;;;;5117417;27;19964;-77
2022/09/09 02:08:07;;;;;;;;;;;;;;;;;;5117753;27;19922;-76
2022/09/09 02:10:36;;;;;;;;;;;;;;;;;;5135718;27;19915;-77
2022/09/09 02:13:05;;;;;;;;;;;;;;;;;;5117389;27;19915;-76
2022/09/09 02:15:35;;;;;;;;;;;;;;;;;;5117240;27;19915;-76
2022/09/09 02:18:01;;;;;;;;;;;;;;;;;;5117018;27;19945;-77
2022/09/09 02:20:27;;;;;;;;;;;;;;;;;;5117328;27;19922;-76
2022/09/09 02:22:52;;;;;;;;;;;;;;;;;;5117298;27;19916;-76
2022/09/09 02:25:19;;;;;;;;;;;;;;;;;;5135897;27;19915;-78
2022/09/09 02:27:45;;;;;;;;;;;;;;;;;;5117127;27;19915;-77
2022/09/09 02:30:10;;;;;;;;;;;;;;;;;;5134956;27;19922;-76
2022/09/09 02:32:35;;;;;;;;;;;;;;;;;;5135335;27;19979;-76
2022/09/09 02:35:03;;;;;;;;;;;;;;;;;;5117035;28;19915;-77
2022/09/09 02:37:31;;;;;;;;;;;;;;;;;;5117345;28;19915;-76
2022/09/09 02:39:56;;;;;;;;;;;;;;;;;;5116987;27;19916;-77
2022/09/09 02:42:22;;;;;;;;;;;;;;;;;;5099946;27;19934;-76
2022/09/09 02:44:47;;;;;;;;;;;;;;;;;;5134975;27;19920;-77
2022/09/09 02:47:15;;;;;;;;;;;;;;;;;;5135600;28;19916;-76
2022/09/09 02:49:55;;;;;;;;;;;;;;;;;;5135193;28;19916;-77
2022/09/09 02:52:25;;;;;;;;;;;;;;;;;;5135229;28;19966;-76
2022/09/09 02:54:51;;;;;;;;;;;;;;;;;;5117306;28;19916;-77
2022/09/09 02:57:21;;;;;;;;;;;;;;;;;;5116723;28;20320;-77
2022/09/09 02:59:46;;;;;;;;;;;;;;;;;;5116354;28;19916;-76
2022/09/09 03:02:12;;;;;;;;;;;;;;;;;;5134923;28;19920;-76
2022/09/09 03:04:38;;;;;;;;;;;;;;;;;;5134953;28;20263;-77
2022/09/09 03:07:03;;;;;;;;;;;;;;;;;;5116684;28;19946;-76
2022/09/09 03:09:29;;;;;;;;;;;;;;;;;;5135216;28;19958;-76
2022/09/09 03:11:55;;;;;;;;;;;;;;;;;;5134816;28;19916;-76
2022/09/09 03:14:24;;;;;;;;;;;;;;;;;;5134766;28;19916;-77
2022/09/09 03:16:49;;;;;;;;;;;;;;;;;;5135168;28;19915;-76
2022/09/09 03:19:15;;;;;;;;;;;;;;;;;;5117046;28;20317;-76
2022/09/09 03:21:40;;;;;;;;;;;;;;;;;;5116556;28;19915;-76
2022/09/09 03:24:06;;;;;;;;;;;;;;;;;;5134875;28;19965;-76
2022/09/09 03:26:31;;;;;;;;;;;;;;;;;;5134934;28;19922;-77
2022/09/09 03:28:57;;;;;;;;;;;;;;;;;;5134853;28;19916;-77
2022/09/09 03:31:22;;;;;;;;;;;;;;;;;;5135079;28;19990;-76
2022/09/09 03:33:47;;;;;;;;;;;;;;;;;;5135360;28;20316;-75
2022/09/09 03:36:13;;;;;;;;;;;;;;;;;;5135318;28;19933;-77
2022/09/09 03:38:39;;;;;;;;;;;;;;;;;;5134689;28;19916;-76
2022/09/09 03:41:06;;;;;;;;;;;;;;;;;;5134773;27;19922;-76
2022/09/09 03:43:32;;;;;;;;;;;;;;;;;;5119756;27;20418;-76
2022/09/09 03:45:57;;;;;;;;;;;;;;;;;;5138554;27;19976;-76
2022/09/09 03:48:23;;;;;;;;;;;;;;;;;;5138482;27;20264;-78
2022/09/09 03:50:49;;;;;;;;;;;;;;;;;;5138558;27;20254;-76
2022/09/09 03:53:15;;;;;;;;;;;;;;;;;;5138311;27;19915;-76
2022/09/09 03:55:44;;;;;;;;;;;;;;;;;;5138344;27;20301;-77
2022/09/09 03:58:10;;;;;;;;;;;;;;;;;;5138263;27;19915;-76
2022/09/09 04:00:35;;;;;;;;;;;;;;;;;;5138431;27;19916;-76
2022/09/09 04:03:01;;;;;;;;;;;;;;;;;;5138037;27;20060;-76
2022/09/09 04:05:27;;;;;;;;;;;;;;;;;;5138511;27;19941;-76
2022/09/09 04:07:52;;;;;;;;;;;;;;;;;;5138555;27;19976;-77
2022/09/09 04:10:17;;;;;;;;;;;;;;;;;;5137977;27;19968;-78
2022/09/09 04:12:43;;;;;;;;;;;;;;;;;;5137759;27;19916;-76
2022/09/09 04:15:10;;;;;;;;;;;;;;;;;;5138001;27;19998;-77
2022/09/09 04:17:36;;;;;;;;;;;;;;;;;;5138150;27;20218;-77
2022/09/09 04:20:01;;;;;;;;;;;;;;;;;;5137824;27;19915;-76
2022/09/09 04:22:27;;;;;;;;;;;;;;;;;;5137829;27;19965;-76
2022/09/09 04:24:52;;;;;;;;;;;;;;;;;;5137773;27;20002;-77
2022/09/09 04:27:17;;;;;;;;;;;;;;;;;;5137701;27;20022;-76
2022/09/09 04:29:42;;;;;;;;;;;;;;;;;;5137980;27;19916;-77
2022/09/09 04:32:08;;;;;;;;;;;;;;;;;;5137663;27;19916;-77
2022/09/09 04:34:33;;;;;;;;;;;;;;;;;;5137569;27;19938;-75
2022/09/09 04:37:00;;;;;;;;;;;;;;;;;;5137558;27;20291;-76
2022/09/09 04:39:26;;;;;;;;;;;;;;;;;;5137620;27;20271;-77
2022/09/09 04:41:51;;;;;;;;;;;;;;;;;;5137133;27;19922;-77
2022/09/09 04:44:16;;;;;;;;;;;;;;;;;;5137679;27;19915;-77
2022/09/09 04:46:41;;;;;;;;;;;;;;;;;;5137622;27;19922;-77
2022/09/09 04:49:07;;;;;;;;;;;;;;;;;;5137317;27;19915;-76
2022/09/09 04:51:32;;;;;;;;;;;;;;;;;;5119299;27;20234;-77
2022/09/09 04:53:57;;;;;;;;;;;;;;;;;;5137348;27;19915;-77
2022/09/09 04:56:23;;;;;;;;;;;;;;;;;;5118568;27;20281;-76
2022/09/09 04:58:48;;;;;;;;;;;;;;;;;;5118774;27;20004;-76
2022/09/09 05:01:21;;;;;;;;;;;;;;;;;;5136845;27;19920;-77
2022/09/09 05:03:47;;;;;;;;;;;;;;;;;;5118819;27;20317;-76
2022/09/09 05:06:21;;;;;;;;;;;;;;;;;;5137300;27;19950;-78
2022/09/09 05:08:48;;;;;;;;;;;;;;;;;;5137166;27;19915;-77
2022/09/09 05:11:19;;;;;;;;;;;;;;;;;;5136396;27;20147;-76
2022/09/09 05:13:44;;;;;;;;;;;;;;;;;;5136745;27;19915;-76
2022/09/09 05:16:11;;;;;;;;;;;;;;;;;;5136954;27;20337;-76
2022/09/09 05:18:36;;;;;;;;;;;;;;;;;;5136680;27;20268;-76
2022/09/09 05:21:02;;;;;;;;;;;;;;;;;;5136529;27;19915;-76
2022/09/09 05:23:27;;;;;;;;;;;;;;;;;;5137083;27;19990;-77
2022/09/09 05:25:56;;;;;;;;;;;;;;;;;;5136326;27;19958;-76
2022/09/09 05:28:22;;;;;;;;;;;;;;;;;;5136791;27;19929;-77
2022/09/09 05:30:54;;;;;;;;;;;;;;;;;;5136482;27;20319;-77
2022/09/09 05:33:20;;;;;;;;;;;;;;;;;;5136405;27;19915;-76
2022/09/09 05:35:46;;;;;;;;;;;;;;;;;;5136484;27;19915;-77
2022/09/09 05:38:11;;;;;;;;;;;;;;;;;;5136573;27;20246;-77
2022/09/09 05:40:36;;;;;;;;;;;;;;;;;;5117594;27;19916;-76
2022/09/09 05:43:02;;;;;;;;;;;;;;;;;;5136447;27;19919;-74
2022/09/09 05:45:27;;;;;;;;;;;;;;;;;;5136278;27;19973;-75
2022/09/09 05:47:53;;;;;;;;;;;;;;;;;;5136233;27;19919;-74
2022/09/09 05:50:18;;;;;;;;;;;;;;;;;;5136178;27;19916;-74
2022/09/09 05:52:44;;;;;;;;;;;;;;;;;;5136052;27;19916;-74
2022/09/09 05:55:09;;;;;;;;;;;;;;;;;;5135895;27;19915;-76
2022/09/09 05:57:35;;;;;;;;;;;;;;;;;;5136114;27;19915;-75
2022/09/09 06:00:00;;;;;;;;;;;;;;;;;;5136291;27;19930;-77
2022/09/09 06:02:25;;;;;;;;;;;;;;;;;;5135719;27;19930;-75
2022/09/09 06:04:51;;;;;;;;;;;;;;;;;;5135269;27;20272;-75
2022/09/09 06:07:17;;;;;;;;;;;;;;;;;;5118387;27;20347;-75
2022/09/09 06:09:42;;;;;;;;;;;;;;;;;;5117623;27;19915;-76
2022/09/09 06:12:08;;;;;;;;;;;;;;;;;;5135114;27;19915;-75
2022/09/09 06:14:34;;;;;;;;;;;;;;;;;;5117415;27;19918;-75
2022/09/09 06:16:59;;;;;;;;;;;;;;;;;;5135934;27;19915;-75
2022/09/09 06:19:26;;;;;;;;;;;;;;;;;;5134941;27;20329;-74
2022/09/09 06:21:52;;;;;;;;;;;;;;;;;;5134475;27;19916;-76
2022/09/09 06:24:19;;;;;;;;;;;;;;;;;;5134488;27;19915;-76
2022/09/09 06:26:45;;;;;;;;;;;;;;;;;;5134137;27;19958;-75
2022/09/09 06:29:10;;;;;;;;;;;;;;;;;;5134207;27;19958;-77
2022/09/09 06:31:36;;;;;;;;;;;;;;;;;;5133906;27;20354;-74
2022/09/09 06:34:02;;;;;;;;;;;;;;;;;;5133863;27;20009;-76
2022/09/09 06:36:28;;;;;;;;;;;;;;;;;;5133800;27;19915;-76
2022/09/09 06:38:53;;;;;;;;;;;;;;;;;;5134808;27;19962;-74
2022/09/09 06:41:19;;;;;;;;;;;;;;;;;;5135298;27;19958;-76
2022/09/09 06:43:45;;;;;;;;;;;;;;;;;;5135078;27;19923;-75
2022/09/09 06:46:11;;;;;;;;;;;;;;;;;;5135043;27;19972;-75
2022/09/09 06:48:38;;;;;;;;;;;;;;;;;;5116788;28;19919;-75
2022/09/09 06:51:13;;;;;;;;;;;;;;;;;;5117059;28;19916;-75
2022/09/09 06:53:39;;;;;;;;;;;;;;;;;;5135197;28;19916;-75
2022/09/09 06:56:11;;;;;;;;;;;;;;;;;;5135324;28;20322;-76
2022/09/09 06:58:36;;;;;;;;;;;;;;;;;;5116605;28;19915;-76
2022/09/09 07:01:03;;;;;;;;;;;;;;;;;;5135105;28;20315;-76
2022/09/09 07:03:28;;;;;;;;;;;;;;;;;;5116860;28;20368;-76
2022/09/09 07:05:55;;;;;;;;;;;;;;;;;;5135440;28;19959;-76
2022/09/09 07:08:21;;;;;;;;;;;;;;;;;;5117374;28;19916;-76
2022/09/09 07:10:47;;;;;;;;;;;;;;;;;;5135534;28;19915;-77
2022/09/09 07:13:15;;;;;;;;;;;;;;;;;;5135136;28;19915;-76
2022/09/09 07:15:41;;;;;;;;;;;;;;;;;;5135119;27;19922;-77
2022/09/09 07:18:06;;;;;;;;;;;;;;;;;;5137996;27;19997;-76
2022/09/09 07:20:31;;;;;;;;;;;;;;;;;;5138929;27;20015;-76
2022/09/09 07:22:59;;;;;;;;;;;;;;;;;;5139259;27;19915;-77
2022/09/09 07:25:24;;;;;;;;;;;;;;;;;;5138974;27;19915;-75
2022/09/09 07:27:49;;;;;;;;;;;;;;;;;;5138878;27;20292;-76
2022/09/09 07:30:15;;;;;;;;;;;;;;;;;;5138870;27;19938;-76
2022/09/09 07:32:40;;;;;;;;;;;;;;;;;;5139145;27;19988;-75
2022/09/09 07:35:14;;;;;;;;;;;;;;;;;;5141237;27;20014;-75
2022/09/09 07:37:41;;;;;;;;;;;;;;;;;;5147048;27;19915;-75
2022/09/09 07:40:07;;;;;;;;;;;;;;;;;;5141662;27;19926;-76
2022/09/09 07:42:32;;;;;;;;;;;;;;;;;;5138994;27;19915;-76
2022/09/09 07:44:57;;;;;;;;;;;;;;;;;;5138692;27;19972;-76
2022/09/09 07:47:24;;;;;;;;;;;;;;;;;;5138634;27;19916;-76
2022/09/09 07:49:49;;;;;;;;;;;;;;;;;;5138179;27;19916;-74
2022/09/09 07:52:16;;;;;;;;;;;;;;;;;;5120206;27;19915;-74
2022/09/09 07:54:41;;;;;;;;;;;;;;;;;;5138414;27;19916;-74
2022/09/09 07:57:07;;;;;;;;;;;;;;;;;;5138991;27;19916;-74
2022/09/09 07:59:32;;;;;;;;;;;;;;;;;;5138972;27;19923;-74
2022/09/09 08:01:58;;;;;;;;;;;;;;;;;;5138093;27;19926;-75
2022/09/09 08:04:23;;;;;;;;;;;;;;;;;;5120132;27;19915;-75
2022/09/09 08:06:50;;;;;;;;;;;;;;;;;;5138711;27;20341;-74
2022/09/09 08:09:15;;;;;;;;;;;;;;;;;;5119967;27;20004;-80
2022/09/09 08:11:41;;;;;;;;;;;;;;;;;;5137959;27;19973;-79
2022/09/09 08:14:07;;;;;;;;;;;;;;;;;;5138217;27;19916;-79
2022/09/09 08:16:33;;;;;;;;;;;;;;;;;;5119687;27;19972;-79
2022/09/09 08:18:58;;;;;;;;;;;;;;;;;;5119510;27;20289;-78
2022/09/09 08:21:26;;;;;;;;;;;;;;;;;;5137800;27;19926;-79
2022/09/09 08:23:53;;;;;;;;;;;;;;;;;;5137590;27;20365;-79
2022/09/09 08:26:22;;;;;;;;;;;;;;;;;;5138341;27;19916;-80
2022/09/09 08:28:47;;;;;;;;;;;;;;;;;;5137679;27;20483;-80
2022/09/09 08:31:14;;;;;;;;;;;;;;;;;;5137683;27;19915;-79
2022/09/09 08:33:39;;;;;;;;;;;;;;;;;;5119158;27;19919;-82
2022/09/09 08:36:05;;;;;;;;;;;;;;;;;;5138317;27;19964;-82
2022/09/09 08:38:31;;;;;;;;;;;;;;;;;;5137684;27;19919;-80
2022/09/09 08:41:03;;;;;;;;;;;;;;;;;;5137546;27;19940;-80
2022/09/09 08:43:29;;;;;;;;;;;;;;;;;;5137536;27;19927;-79
2022/09/09 08:46:03;;;;;;;;;;;;;;;;;;5119130;27;19915;-80
2022/09/09 08:48:29;;;;;;;;;;;;;;;;;;5136523;27;19916;-79
2022/09/09 08:51:01;;;;;;;;;;;;;;;;;;5137688;27;20328;-79
2022/09/09 08:53:30;;;;;;;;;;;;;;;;;;5119912;27;19950;-79
2022/09/09 08:55:59;;;;;;;;;;;;;;;;;;5119110;27;19911;-82
2022/09/09 08:58:25;;;;;;;;;;;;;;;;;;5118913;27;19920;-81
2022/09/09 09:00:51;;;;;;;;;;;;;;;;;;5139140;27;20240;-84
2022/09/09 09:03:24;;;;;;;;;;;;;;;;;;5137420;27;20259;-85
2022/09/09 09:05:55;;;;;;;;;;;;;;;;;;5122287;27;19916;-91
2022/09/09 09:08:40;;;;;;;;;;;;;;;;;;5137403;27;19931;-86
2022/09/09 09:11:06;;;;;;;;;;;;;;;;;;5102775;27;20001;-86
2022/09/09 09:13:31;;;;;;;;;;;;;;;;;;5118809;27;19929;-84
2022/09/09 09:15:58;;;;;;;;;;;;;;;;;;5137304;27;19916;-83
2022/09/09 09:18:23;;;;;;;;;;;;;;;;;;5118807;27;19916;-81
2022/09/09 09:21:07;;;;;;;;;;;;;;;;;;5136874;27;19922;-82
2022/09/09 09:23:43;;;;;;;;;;;;;;;;;;5137390;27;19915;-83
2022/09/09 09:26:09;;;;;;;;;;;;;;;;;;5118452;27;19938;-82
2022/09/09 09:28:36;;;;;;;;;;;;;;;;;;5137037;27;20392;-85
2022/09/09 09:31:03;;;;;;;;;;;;;;;;;;5118503;27;20267;-88
2022/09/09 09:33:34;;;;;;;;;;;;;;;;;;5136828;27;19922;-83
2022/09/09 09:35:59;;;;;;;;;;;;;;;;;;5101432;27;20304;-82
2022/09/09 09:38:26;;;;;;;;;;;;;;;;;;5136514;27;19916;-80
2022/09/09 09:40:54;;;;;;;;;;;;;;;;;;5138007;27;19998;-83
2022/09/09 09:43:21;;;;;;;;;;;;;;;;;;5139352;27;19927;-81
2022/09/09 09:45:48;;;;;;;;;;;;;;;;;;5138897;27;19955;-82
2022/09/09 09:48:13;;;;;;;;;;;;;;;;;;5138926;27;19915;-81
2022/09/09 09:51:07;;;;;;;;;;;;;;;;;;5143265;27;19922;-81
2022/09/09 09:53:34;;;;;;;;;;;;;;;;;;5118129;27;19918;-82
2022/09/09 09:56:03;;;;;;;;;;;;;;;;;;5140279;27;19916;-82
2022/09/09 09:58:33;;;;;;;;;;;;;;;;;;5140491;27;19915;-83
2022/09/09 10:00:59;;;;;;;;;;;;;;;;;;5150712;27;19925;-82
2022/09/09 10:03:26;;;;;;;;;;;;;;;;;;5159982;27;19931;-80
2022/09/09 10:05:52;;;;;;;;;;;;;;;;;;5142105;27;19933;-83
2022/09/09 10:08:17;;;;;;;;;;;;;;;;;;5129068;27;20333;-84
2022/09/09 10:10:42;;;;;;;;;;;;;;;;;;5140760;27;19944;-83
2022/09/09 10:13:11;;;;;;;;;;;;;;;;;;5122034;27;20287;-83
2022/09/09 10:15:50;;;;;;;;;;;;;;;;;;5117864;27;19967;-82
2022/09/09 10:18:35;;;;;;;;;;;;;;;;;;5135795;27;19916;-82
2022/09/09 10:21:10;;;;;;;;;;;;;;;;;;5135988;27;20003;-83
2022/09/09 10:23:44;;;;;;;;;;;;;;;;;;5117358;27;19915;-80
2022/09/09 10:26:16;;;;;;;;;;;;;;;;;;5135912;27;19915;-85
2022/09/09 10:28:44;;;;;;;;;;;;;;;;;;5118908;27;19994;-82
2022/09/09 10:31:10;;;;;;;;;;;;;;;;;;5135876;27;19915;-84
2022/09/09 10:33:50;;;;;;;;;;;;;;;;;;5135645;27;19923;-86
2022/09/09 10:36:20;;;;;;;;;;;;;;;;;;5135528;27;20332;-85
2022/09/09 10:38:46;;;;;;;;;;;;;;;;;;5135635;27;19964;-85
2022/09/09 10:41:31;;;;;;;;;;;;;;;;;;5117381;28;19920;-84
2022/09/09 10:44:15;;;;;;;;;;;;;;;;;;5116895;27;20023;-86
2022/09/09 10:47:00;;;;;;;;;;;;;;;;;;5117359;28;20382;-82
2022/09/09 10:49:54;;;;;;;;;;;;;;;;;;5135305;27;19911;-84
2022/09/09 10:52:22;;;;;;;;;;;;;;;;;;5112580;28;20218;-84
2022/09/09 10:54:51;;;;;;;;;;;;;;;;;;5116948;28;19916;-82
2022/09/09 10:57:16;;;;;;;;;;;;;;;;;;5135317;28;20666;-83
2022/09/09 10:59:43;;;;;;;;;;;;;;;;;;5134453;28;20256;-80
2022/09/09 11:02:11;;;;;;;;;;;;;;;;;;5118198;28;19920;-82
2022/09/09 11:04:40;;;;;;;;;;;;;;;;;;5114510;28;20014;-83
2022/09/09 11:07:07;;;;;;;;;;;;;;;;;;5096428;28;19923;-83
2022/09/09 11:09:33;;;;;;;;;;;;;;;;;;5096160;28;19916;-82
2022/09/09 11:11:58;;;;;;;;;;;;;;;;;;5096124;28;20063;-82
2022/09/09 11:14:27;;;;;;;;;;;;;;;;;;5096159;28;19922;-82
2022/09/09 11:16:56;;;;;;;;;;;;;;;;;;5115422;28;19916;-82
2022/09/09 11:19:22;;;;;;;;;;;;;;;;;;5115900;28;20387;-82
2022/09/09 11:21:47;;;;;;;;;;;;;;;;;;5114425;28;19916;-80
2022/09/09 11:24:19;;;;;;;;;;;;;;;;;;5096084;28;19916;-82
2022/09/09 11:26:47;;;;;;;;;;;;;;;;;;5093804;28;19916;-83
2022/09/09 11:29:13;;;;;;;;;;;;;;;;;;5096430;28;19931;-81
2022/09/09 11:31:42;;;;;;;;;;;;;;;;;;5114235;28;19916;-82
2022/09/09 11:34:10;;;;;;;;;;;;;;;;;;5114372;28;19923;-82
2022/09/09 11:36:49;;;;;;;;;;;;;;;;;;5114547;28;19920;-82
2022/09/09 11:39:24;;;;;;;;;;;;;;;;;;5113577;28;20217;-80
2022/09/09 11:41:49;;;;;;;;;;;;;;;;;;5112793;28;19951;-83
2022/09/09 11:44:18;;;;;;;;;;;;;;;;;;5113659;28;19970;-82
2022/09/09 11:46:44;;;;;;;;;;;;;;;;;;5095812;28;19941;-80
2022/09/09 11:49:28;;;;;;;;;;;;;;;;;;5095159;28;20301;-81
2022/09/09 11:51:54;;;;;;;;;;;;;;;;;;5116452;28;19947;-80
2022/09/09 11:54:30;;;;;;;;;;;;;;;;;;5114169;28;20321;-81
2022/09/09 11:56:56;;;;;;;;;;;;;;;;;;5114218;28;19916;-81
2022/09/09 11:59:22;;;;;;;;;;;;;;;;;;5096178;28;20310;-82
2022/09/09 12:01:57;;;;;;;;;;;;;;;;;;5095197;28;19927;-80
2022/09/09 12:04:25;;;;;;;;;;;;;;;;;;5116551;28;20072;-81
2022/09/09 12:06:58;;;;;;;;;;;;;;;;;;5117387;28;20325;-80
2022/09/09 12:09:41;;;;;;;;;;;;;;;;;;5099636;28;19916;-82
2022/09/09 12:12:13;;;;;;;;;;;;;;;;;;5116601;28;19911;-82
2022/09/09 12:14:54;;;;;;;;;;;;;;;;;;5117084;28;19923;-82
2022/09/09 12:17:23;;;;;;;;;;;;;;;;;;5116413;28;19918;-82
2022/09/09 12:19:48;;;;;;;;;;;;;;;;;;5117446;28;19923;-82
2022/09/09 12:22:15;;;;;;;;;;;;;;;;;;5107808;28;19919;-83
2022/09/09 12:24:46;;;;;;;;;;;;;;;;;;5116941;28;19923;-83
2022/09/09 12:27:15;;;;;;;;;;;;;;;;;;5080705;28;19916;-83
2022/09/09 12:29:47;;;;;;;;;;;;;;;;;;5115237;27;19919;-82
2022/09/09 12:32:16;;;;;;;;;;;;;;;;;;5119842;27;19998;-82
2022/09/09 12:34:44;;;;;;;;;;;;;;;;;;5136352;27;20261;-83
2022/09/09 12:37:25;;;;;;;;;;;;;;;;;;5119274;27;19922;-81
2022/09/09 12:39:55;;;;;;;;;;;;;;;;;;5119065;27;19916;-82
2022/09/09 12:42:20;;;;;;;;;;;;;;;;;;5119145;27;19915;-83
2022/09/09 12:44:58;;;;;;;;;;;;;;;;;;5136688;27;19915;-82
2022/09/09 12:47:27;;;;;;;;;;;;;;;;;;5118951;27;20000;-82
2022/09/09 12:49:52;;;;;;;;;;;;;;;;;;5137225;27;19988;-82
2022/09/09 12:52:26;;;;;;;;;;;;;;;;;;5118083;27;20344;-83
2022/09/09 12:54:53;;;;;;;;;;;;;;;;;;5118524;27;19920;-83
2022/09/09 12:57:19;;;;;;;;;;;;;;;;;;5118680;27;19920;-83
2022/09/09 12:59:48;;;;;;;;;;;;;;;;;;5097989;28;19922;-83
2022/09/09 13:02:25;;;;;;;;;;;;;;;;;;5116037;28;19923;-84
2022/09/09 13:04:51;;;;;;;;;;;;;;;;;;5098308;28;19973;-86
2022/09/09 13:07:20;;;;;;;;;;;;;;;;;;5097319;28;19916;-83
2022/09/09 13:09:45;;;;;;;;;;;;;;;;;;5098208;28;19977;-83
2022/09/09 13:12:20;;;;;;;;;;;;;;;;;;5096948;28;19964;-85
2022/09/09 13:14:50;;;;;;;;;;;;;;;;;;5096740;28;19939;-81
2022/09/09 13:17:20;;;;;;;;;;;;;;;;;;5096626;28;19927;-81
2022/09/09 13:19:46;;;;;;;;;;;;;;;;;;5097160;28;19969;-82
2022/09/09 13:22:18;;;;;;;;;;;;;;;;;;5097919;28;19919;-81
2022/09/09 13:24:44;;;;;;;;;;;;;;;;;;5097452;28;19954;-82
2022/09/09 13:27:28;;;;;;;;;;;;;;;;;;5097673;28;20332;-81
2022/09/09 13:29:56;;;;;;;;;;;;;;;;;;5115869;28;19984;-81
2022/09/09 13:32:21;;;;;;;;;;;;;;;;;;5115835;28;19929;-81
2022/09/09 13:34:50;;;;;;;;;;;;;;;;;;5097746;28;19915;-81
2022/09/09 13:37:36;;;;;;;;;;;;;;;;;;5115681;28;19925;-81
2022/09/09 13:40:02;;;;;;;;;;;;;;;;;;5115484;28;19939;-81
2022/09/09 13:42:28;;;;;;;;;;;;;;;;;;5115799;28;19916;-81
2022/09/09 13:44:55;;;;;;;;;;;;;;;;;;5097861;28;20221;-81
2022/09/09 13:47:31;;;;;;;;;;;;;;;;;;5097672;28;19965;-81
2022/09/09 13:49:56;;;;;;;;;;;;;;;;;;5097366;28;19912;-82
2022/09/09 13:52:22;;;;;;;;;;;;;;;;;;5097108;28;19916;-81
2022/09/09 13:54:50;;;;;;;;;;;;;;;;;;5115859;28;20221;-81
2022/09/09 13:57:23;;;;;;;;;;;;;;;;;;5115585;28;19923;-81
2022/09/09 13:59:48;;;;;;;;;;;;;;;;;;5097396;28;19916;-81
2022/09/09 14:02:16;;;;;;;;;;;;;;;;;;5097141;28;19927;-80
2022/09/09 14:04:41;;;;;;;;;;;;;;;;;;5097258;28;19972;-81
2022/09/09 14:07:09;;;;;;;;;;;;;;;;;;5115173;28;19916;-81
2022/09/09 14:09:34;;;;;;;;;;;;;;;;;;5115695;28;19946;-81
2022/09/09 14:12:02;;;;;;;;;;;;;;;;;;5115241;28;19916;-82
2022/09/09 14:14:27;;;;;;;;;;;;;;;;;;5115239;28;20317;-81
2022/09/09 14:16:52;;;;;;;;;;;;;;;;;;5115198;28;19927;-80
2022/09/09 14:19:18;;;;;;;;;;;;;;;;;;5115051;28;19954;-81
2022/09/09 14:21:43;;;;;;;;;;;;;;;;;;5114959;28;19916;-81
2022/09/09 14:24:08;;;;;;;;;;;;;;;;;;5115192;28;20395;-81
2022/09/09 14:26:34;;;;;;;;;;;;;;;;;;5114597;28;20325;-81
2022/09/09 14:29:00;;;;;;;;;;;;;;;;;;5115005;28;19916;-81
2022/09/09 14:31:26;;;;;;;;;;;;;;;;;;5115218;28;19916;-81
2022/09/09 14:33:52;;;;;;;;;;;;;;;;;;5115095;28;19919;-82
2022/09/09 14:36:17;;;;;;;;;;;;;;;;;;5114786;28;19915;-80
2022/09/09 14:38:43;;;;;;;;;;;;;;;;;;5114876;28;19962;-80
2022/09/09 14:41:11;;;;;;;;;;;;;;;;;;5096487;28;19955;-81
2022/09/09 14:43:37;;;;;;;;;;;;;;;;;;5096912;28;19915;-81
2022/09/09 14:46:06;;;;;;;;;;;;;;;;;;5096623;28;20321;-81
2022/09/09 14:48:33;;;;;;;;;;;;;;;;;;5096612;28;19916;-80
2022/09/09 14:51:04;;;;;;;;;;;;;;;;;;5114559;28;20260;-81
2022/09/09 14:53:29;;;;;;;;;;;;;;;;;;5114777;28;20306;-80
2022/09/09 14:56:02;;;;;;;;;;;;;;;;;;5096664;28;19916;-81
2022/09/09 14:58:30;;;;;;;;;;;;;;;;;;5114645;28;20337;-81
2022/09/09 15:00:55;;;;;;;;;;;;;;;;;;5096253;28;19922;-82
2022/09/09 15:03:22;;;;;;;;;;;;;;;;;;5114645;28;19915;-81
2022/09/09 15:05:48;;;;;;;;;;;;;;;;;;5114917;28;20301;-81
2022/09/09 15:08:15;;;;;;;;;;;;;;;;;;5114985;28;19925;-82
2022/09/09 15:10:40;;;;;;;;;;;;;;;;;;5096404;28;19916;-81
2022/09/09 15:13:06;;;;;;;;;;;;;;;;;;5114735;28;19922;-80
2022/09/09 15:15:31;;;;;;;;;;;;;;;;;;5114996;28;19939;-80
2022/09/09 15:17:56;;;;;;;;;;;;;;;;;;5096208;28;19916;-80
2022/09/09 15:20:22;;;;;;;;;;;;;;;;;;5114138;28;19916;-79
2022/09/09 15:22:47;;;;;;;;;;;;;;;;;;5114732;28;20363;-81
2022/09/09 15:25:13;;;;;;;;;;;;;;;;;;5114672;28;19964;-80
2022/09/09 15:27:38;;;;;;;;;;;;;;;;;;5114562;28;19916;-81
2022/09/09 15:30:04;;;;;;;;;;;;;;;;;;5114669;28;19972;-80
2022/09/09 15:32:29;;;;;;;;;;;;;;;;;;5114311;28;19916;-80
2022/09/09 15:34:55;;;;;;;;;;;;;;;;;;5113995;28;20245;-80
2022/09/09 15:37:20;;;;;;;;;;;;;;;;;;5114565;28;19916;-80
2022/09/09 15:39:45;;;;;;;;;;;;;;;;;;5117853;28;19916;-79
2022/09/09 15:42:11;;;;;;;;;;;;;;;;;;5118503;28;19977;-80
2022/09/09 15:44:40;;;;;;;;;;;;;;;;;;5118424;28;20032;-80
2022/09/09 15:47:05;;;;;;;;;;;;;;;;;;5099929;28;19916;-80
2022/09/09 15:49:30;;;;;;;;;;;;;;;;;;5117783;28;19922;-80
2022/09/09 15:51:57;;;;;;;;;;;;;;;;;;5118007;28;19916;-80
2022/09/09 15:54:23;;;;;;;;;;;;;;;;;;5118230;28;19916;-79
2022/09/09 15:56:54;;;;;;;;;;;;;;;;;;5118172;28;20242;-80
2022/09/09 15:59:20;;;;;;;;;;;;;;;;;;5117714;28;19970;-81
2022/09/09 16:01:45;;;;;;;;;;;;;;;;;;5117514;28;19967;-80
2022/09/09 16:04:10;;;;;;;;;;;;;;;;;;5099419;28;20026;-81
2022/09/09 16:06:36;;;;;;;;;;;;;;;;;;5117657;28;20002;-81
2022/09/09 16:09:02;;;;;;;;;;;;;;;;;;5117914;28;19916;-80
2022/09/09 16:11:28;;;;;;;;;;;;;;;;;;5099736;28;19916;-80
2022/09/09 16:13:54;;;;;;;;;;;;;;;;;;5099349;28;19922;-80
2022/09/09 16:16:21;;;;;;;;;;;;;;;;;;5099861;28;19916;-80
2022/09/09 16:18:47;;;;;;;;;;;;;;;;;;5099324;28;19912;-80
2022/09/09 16:21:16;;;;;;;;;;;;;;;;;;5117522;28;19916;-81
2022/09/09 16:23:42;;;;;;;;;;;;;;;;;;5117354;28;20295;-82
2022/09/09 16:26:08;;;;;;;;;;;;;;;;;;5099263;28;19916;-81
2022/09/09 16:28:33;;;;;;;;;;;;;;;;;;5099484;28;19923;-82
2022/09/09 16:30:58;;;;;;;;;;;;;;;;;;5117238;28;19916;-82
2022/09/09 16:33:25;;;;;;;;;;;;;;;;;;5116946;28;20341;-82
2022/09/09 16:35:51;;;;;;;;;;;;;;;;;;5117217;28;19948;-82
2022/09/09 16:38:16;;;;;;;;;;;;;;;;;;5117407;28;19916;-82
2022/09/09 16:40:42;;;;;;;;;;;;;;;;;;5098956;28;19998;-82
2022/09/09 16:43:07;;;;;;;;;;;;;;;;;;5117198;28;20013;-82
2022/09/09 16:45:32;;;;;;;;;;;;;;;;;;5098763;28;19912;-81
2022/09/09 16:47:58;;;;;;;;;;;;;;;;;;5116703;28;20008;-82
2022/09/09 16:50:24;;;;;;;;;;;;;;;;;;5098260;28;19917;-82